Time;durP1;ratioP1;P1;durP2;ratioP2;P2;SDS_P1;SDS_P2;PMS_P1;PMS_P2;Temp;Humidity;BMP_temperature;BMP_pressure;BME280_temperature;BME280_humidity;BME280_pressure;Samples;Min_cycle;Max_cycle;Signal;HPM_P1;HPM_P2
2021/06/09 00:01:33;;;;;;;;;;;;;;;12.30;84.28;102255.31;5050454;28;19913;-80
2021/06/09 00:03:59;;;;;;;;;;;;;;;12.22;84.60;102254.13;5051344;28;19924;-81
2021/06/09 00:06:25;;;;;;;;;;;;;;;12.19;85.44;102253.53;5039069;28;19917;-81
2021/06/09 00:08:51;;;;;;;;;;;;;;;12.15;85.42;102252.94;5049930;28;19917;-81
2021/06/09 00:11:16;;;;;;;;;;;;;;;12.10;85.49;102247.19;5035357;28;19920;-79
2021/06/09 00:13:42;;;;;;;;;;;;;;;12.11;85.29;102248.03;5052487;28;19916;-79
2021/06/09 00:16:10;;;;;;;;;;;;;;;12.11;85.57;102248.03;5048533;28;19920;-81
2021/06/09 00:18:36;;;;;;;;;;;;;;;12.07;85.28;102248.28;5036826;28;19956;-79
2021/06/09 00:21:01;;;;;;;;;;;;;;;12.09;85.83;102248.13;5036512;28;20347;-80
2021/06/09 00:23:29;;;;;;;;;;;;;;;12.07;85.54;102243.03;5032085;28;20011;-79
2021/06/09 00:25:56;;;;;;;;;;;;;;;12.06;85.72;102238.69;5048010;28;19951;-84
2021/06/09 00:28:21;;;;;;;;;;;;;;;12.04;85.78;102247.69;5022912;28;19913;-80
2021/06/09 00:30:47;;;;;;;;;;;;;;;12.01;86.10;102245.28;5021992;28;20267;-81
2021/06/09 00:33:25;;;;;;;;;;;;;;;12.00;86.04;102244.44;5035804;28;19970;-79
2021/06/09 00:35:54;;;;;;;;;;;;;;;11.98;85.95;102240.25;5036065;28;19976;-79
2021/06/09 00:38:19;;;;;;;;;;;;;;;12.00;85.97;102238.38;5044661;28;20019;-82
2021/06/09 00:40:45;;;;;;;;;;;;;;;12.01;85.62;102240.84;5050648;28;19999;-80
2021/06/09 00:43:10;;;;;;;;;;;;;;;12.01;85.58;102237.38;5043468;28;19913;-78
2021/06/09 00:45:37;;;;;;;;;;;;;;;11.98;86.00;102233.22;5033112;28;19959;-79
2021/06/09 00:48:03;;;;;;;;;;;;;;;11.94;85.80;102237.03;5042446;28;19909;-80
2021/06/09 00:50:29;;;;;;;;;;;;;;;11.95;85.59;102237.88;5014681;28;19917;-80
2021/06/09 00:53:26;;;;;;;;;;;;;;;11.96;85.64;102232.50;5038177;28;19924;-78
2021/06/09 00:55:40;;;;;;;;;;;;;;;11.95;85.56;102235.25;5034738;28;19917;-78
2021/06/09 00:58:06;;;;;;;;;;;;;;;11.90;86.22;102232.13;5029841;28;19924;-79
2021/06/09 01:00:32;;;;;;;;;;;;;;;11.84;86.20;102234.22;5013174;28;19913;-78
2021/06/09 01:02:57;;;;;;;;;;;;;;;11.78;86.62;102232.09;5029343;28;19939;-77
2021/06/09 01:05:23;;;;;;;;;;;;;;;11.78;86.51;102226.81;5039864;28;19916;-75
2021/06/09 01:07:48;;;;;;;;;;;;;;;11.81;86.63;102226.59;5046993;28;19916;-75
2021/06/09 01:10:14;;;;;;;;;;;;;;;11.84;87.01;102231.59;5044900;28;19916;-76
2021/06/09 01:12:41;;;;;;;;;;;;;;;11.83;87.68;102235.19;5047147;28;19924;-81
2021/06/09 01:15:07;;;;;;;;;;;;;;;11.77;88.59;102229.56;5035247;28;19921;-79
2021/06/09 01:17:33;;;;;;;;;;;;;;;11.67;89.27;102230.25;5033308;28;19999;-81
2021/06/09 01:19:58;;;;;;;;;;;;;;;11.66;89.21;102230.41;5048729;28;20422;-78
2021/06/09 01:22:24;;;;;;;;;;;;;;;11.69;89.04;102228.34;5042323;28;19928;-80
2021/06/09 01:24:50;;;;;;;;;;;;;;;11.68;88.79;102228.50;5036582;28;19921;-80
2021/06/09 01:27:20;;;;;;;;;;;;;;;11.68;89.02;102233.75;5051365;28;19913;-79
2021/06/09 01:29:45;;;;;;;;;;;;;;;11.65;89.46;102229.56;5022500;28;19917;-80
2021/06/09 01:32:10;;;;;;;;;;;;;;;11.61;90.43;102232.53;5030063;28;20409;-79
2021/06/09 01:34:36;;;;;;;;;;;;;;;11.54;90.99;102224.28;5031989;28;19962;-79
2021/06/09 01:37:02;;;;;;;;;;;;;;;11.51;91.37;102232.41;5048551;28;19923;-76
2021/06/09 01:39:30;;;;;;;;;;;;;;;11.53;91.30;102227.00;5042429;28;19959;-76
2021/06/09 01:41:56;;;;;;;;;;;;;;;11.52;91.14;102227.97;5038411;28;19963;-75
2021/06/09 01:44:21;;;;;;;;;;;;;;;11.53;91.31;102227.88;5010675;28;19952;-78
2021/06/09 01:46:47;;;;;;;;;;;;;;;11.49;91.28;102226.44;5030491;28;19917;-77
2021/06/09 01:49:14;;;;;;;;;;;;;;;11.48;91.48;102230.84;5046292;28;19922;-78
2021/06/09 01:51:40;;;;;;;;;;;;;;;11.47;91.34;102230.94;5039258;28;19916;-76
2021/06/09 01:54:08;;;;;;;;;;;;;;;11.47;91.83;102225.69;5046871;28;20310;-77
2021/06/09 01:56:34;;;;;;;;;;;;;;;11.44;92.01;102229.41;5018102;28;19925;-79
2021/06/09 01:59:20;;;;;;;;;;;;;;;11.42;92.36;102238.34;5039659;28;20287;-79
2021/06/09 02:01:47;;;;;;;;;;;;;;;11.38;92.66;102231.66;5035068;28;19971;-79
2021/06/09 02:04:13;;;;;;;;;;;;;;;11.30;92.50;102235.69;5027672;28;19913;-76
2021/06/09 02:06:40;;;;;;;;;;;;;;;11.32;92.82;102232.97;5030387;28;20299;-78
2021/06/09 02:09:06;;;;;;;;;;;;;;;11.33;93.00;102228.53;5031247;28;19944;-79
2021/06/09 02:11:32;;;;;;;;;;;;;;;11.33;93.63;102221.50;5011021;28;20019;-79
2021/06/09 02:13:58;;;;;;;;;;;;;;;11.32;94.25;102227.72;5017039;28;20011;-77
2021/06/09 02:16:24;;;;;;;;;;;;;;;11.25;94.01;102222.06;5036337;28;19909;-79
2021/06/09 02:18:49;;;;;;;;;;;;;;;11.28;93.56;102221.84;5029512;28;19917;-79
2021/06/09 02:21:15;;;;;;;;;;;;;;;11.30;93.80;102219.94;5021544;28;19963;-78
2021/06/09 02:23:46;;;;;;;;;;;;;;;11.33;93.56;102223.28;5041855;28;19971;-78
2021/06/09 02:26:11;;;;;;;;;;;;;;;11.30;94.19;102219.06;5013113;28;19917;-79
2021/06/09 02:28:37;;;;;;;;;;;;;;;11.26;94.48;102213.25;5030292;28;19916;-79
2021/06/09 02:31:03;;;;;;;;;;;;;;;11.27;94.14;102225.41;5032143;28;20454;-79
2021/06/09 02:33:29;;;;;;;;;;;;;;;11.27;94.08;102219.31;5030064;28;20019;-77
2021/06/09 02:35:55;;;;;;;;;;;;;;;11.28;94.28;102215.72;5041227;28;19995;-77
2021/06/09 02:38:20;;;;;;;;;;;;;;;11.25;94.23;102216.81;5049190;28;19920;-78
2021/06/09 02:40:47;;;;;;;;;;;;;;;11.21;94.37;102218.00;5028030;28;19970;-78
2021/06/09 02:43:13;;;;;;;;;;;;;;;11.20;94.71;102215.47;5049129;28;19917;-79
2021/06/09 02:45:39;;;;;;;;;;;;;;;11.15;95.20;102212.34;5048263;28;19928;-79
2021/06/09 02:48:06;;;;;;;;;;;;;;;11.12;95.22;102217.84;5032300;28;19923;-81
2021/06/09 02:50:32;;;;;;;;;;;;;;;11.12;95.30;102213.44;5041524;28;19962;-78
2021/06/09 02:53:06;;;;;;;;;;;;;;;11.10;95.30;102221.41;5034238;28;19921;-78
2021/06/09 02:55:40;;;;;;;;;;;;;;;11.12;94.58;102216.06;5039681;28;19958;-78
2021/06/09 02:58:31;;;;;;;;;;;;;;;11.06;94.21;102219.13;5014697;28;19916;-80
2021/06/09 03:00:57;;;;;;;;;;;;;;;11.01;93.80;102216.84;5034947;28;19913;-78
2021/06/09 03:03:22;;;;;;;;;;;;;;;11.03;93.96;102216.72;5049127;28;20952;-80
2021/06/09 03:05:48;;;;;;;;;;;;;;;10.97;93.97;102217.19;5031711;28;19917;-78
2021/06/09 03:08:16;;;;;;;;;;;;;;;10.97;94.06;102218.03;5050222;28;19963;-80
2021/06/09 03:10:51;;;;;;;;;;;;;;;10.97;93.82;102215.41;5047245;28;19919;-79
2021/06/09 03:13:28;;;;;;;;;;;;;;;10.94;93.84;102210.34;5015344;28;20015;-80
2021/06/09 03:16:02;;;;;;;;;;;;;;;10.95;93.73;102211.22;5014917;28;19916;-79
2021/06/09 03:18:31;;;;;;;;;;;;;;;10.96;93.36;102205.84;5012105;28;19956;-80
2021/06/09 03:20:57;;;;;;;;;;;;;;;10.97;93.72;102212.78;5020908;28;20372;-79
2021/06/09 03:23:41;;;;;;;;;;;;;;;10.96;93.63;102210.25;5008945;28;19959;-77
2021/06/09 03:26:17;;;;;;;;;;;;;;;10.96;93.89;102202.38;5042740;28;20290;-79
2021/06/09 03:28:49;;;;;;;;;;;;;;;10.97;94.55;102209.31;5053295;28;19913;-79
2021/06/09 03:31:19;;;;;;;;;;;;;;;10.95;94.89;102211.22;5052211;28;19919;-79
2021/06/09 03:33:48;;;;;;;;;;;;;;;10.96;95.02;102212.88;5053244;28;19923;-80
2021/06/09 03:36:19;;;;;;;;;;;;;;;11.01;95.24;102214.22;5042097;28;20264;-80
2021/06/09 03:38:49;;;;;;;;;;;;;;;11.06;95.21;102216.50;5039200;28;20399;-78
2021/06/09 03:41:16;;;;;;;;;;;;;;;11.10;94.90;102213.53;5044117;28;19998;-80
2021/06/09 03:43:45;;;;;;;;;;;;;;;11.15;94.82;102209.72;5036790;28;19913;-80
2021/06/09 03:46:11;;;;;;;;;;;;;;;11.18;94.44;102210.34;5052960;28;19916;-80
2021/06/09 03:48:38;;;;;;;;;;;;;;;11.19;94.35;102208.53;5036523;28;19916;-78
2021/06/09 03:51:04;;;;;;;;;;;;;;;11.24;94.47;102203.78;5018609;28;19912;-80
2021/06/09 03:53:31;;;;;;;;;;;;;;;11.28;94.33;102211.34;5054445;28;20470;-79
2021/06/09 03:55:59;;;;;;;;;;;;;;;11.33;94.20;102213.59;5053317;28;19913;-79
2021/06/09 03:58:26;;;;;;;;;;;;;;;11.38;94.58;102216.72;5052914;28;20000;-80
2021/06/09 04:00:54;;;;;;;;;;;;;;;11.42;94.89;102210.28;5033477;28;20375;-78
2021/06/09 04:03:20;;;;;;;;;;;;;;;11.45;94.91;102209.22;5051678;28;19956;-79
2021/06/09 04:05:46;;;;;;;;;;;;;;;11.52;94.40;102209.59;5051531;28;19951;-79
2021/06/09 04:08:12;;;;;;;;;;;;;;;11.62;94.12;102207.91;5047210;28;19935;-79
2021/06/09 04:10:40;;;;;;;;;;;;;;;11.73;93.72;102210.56;5015539;28;20406;-79
2021/06/09 04:13:06;;;;;;;;;;;;;;;11.82;93.83;102207.22;5032666;28;19921;-81
2021/06/09 04:15:32;;;;;;;;;;;;;;;11.89;94.26;102207.59;5036373;28;19923;-79
2021/06/09 04:17:58;;;;;;;;;;;;;;;11.96;94.35;102208.84;5052113;28;19958;-78
2021/06/09 04:20:28;;;;;;;;;;;;;;;12.02;94.48;102199.63;5018717;28;19916;-78
2021/06/09 04:22:54;;;;;;;;;;;;;;;12.13;94.88;102207.50;5039810;28;19919;-79
2021/06/09 04:25:20;;;;;;;;;;;;;;;12.24;95.64;102211.91;5043579;28;20015;-80
2021/06/09 04:27:46;;;;;;;;;;;;;;;12.33;95.50;102202.44;5051875;28;19912;-80
2021/06/09 04:30:13;;;;;;;;;;;;;;;12.41;95.12;102210.56;5051014;28;20490;-80
2021/06/09 04:32:53;;;;;;;;;;;;;;;12.50;94.52;102212.47;5044246;28;19927;-79
2021/06/09 04:35:20;;;;;;;;;;;;;;;12.64;93.71;102214.00;5050689;28;20454;-79
2021/06/09 04:37:45;;;;;;;;;;;;;;;12.75;93.46;102205.22;5018132;28;19913;-81
2021/06/09 04:40:14;;;;;;;;;;;;;;;12.93;93.34;102211.59;5034823;28;20378;-81
2021/06/09 04:42:41;;;;;;;;;;;;;;;13.12;93.33;102205.66;5015721;28;20157;-79
2021/06/09 04:45:06;;;;;;;;;;;;;;;13.30;92.25;102203.31;5016287;28;20379;-80
2021/06/09 04:47:32;;;;;;;;;;;;;;;13.46;91.18;102210.75;5026829;28;19961;-79
2021/06/09 04:49:57;;;;;;;;;;;;;;;13.57;90.55;102215.13;5022082;28;19917;-79
2021/06/09 04:52:23;;;;;;;;;;;;;;;13.73;89.24;102217.28;5051514;28;19946;-80
2021/06/09 04:54:49;;;;;;;;;;;;;;;13.78;89.18;102215.09;5051749;28;19916;-76
2021/06/09 04:57:14;;;;;;;;;;;;;;;13.81;89.33;102213.03;5042958;28;20473;-80
2021/06/09 04:59:39;;;;;;;;;;;;;;;13.91;90.01;102215.72;5036473;28;19920;-79
2021/06/09 05:02:05;;;;;;;;;;;;;;;14.00;89.91;102208.81;5031396;28;19920;-79
2021/06/09 05:04:30;;;;;;;;;;;;;;;14.10;89.51;102214.13;5039251;28;20675;-80
2021/06/09 05:06:56;;;;;;;;;;;;;;;14.13;88.78;102211.22;5035210;28;19912;-81
2021/06/09 05:09:22;;;;;;;;;;;;;;;14.19;88.99;102210.69;5039357;28;20293;-81
2021/06/09 05:11:48;;;;;;;;;;;;;;;14.25;87.98;102220.69;5013478;28;19919;-81
2021/06/09 05:14:17;;;;;;;;;;;;;;;14.27;87.40;102216.13;5031392;28;19963;-79
2021/06/09 05:16:47;;;;;;;;;;;;;;;14.39;87.71;102214.19;5046476;28;19917;-79
2021/06/09 05:19:15;;;;;;;;;;;;;;;14.51;86.98;102215.75;5042919;28;19927;-80
2021/06/09 05:21:40;;;;;;;;;;;;;;;14.74;86.07;102212.91;5031418;28;20425;-79
2021/06/09 05:24:08;;;;;;;;;;;;;;;14.78;86.57;102212.47;5031350;28;19913;-81
2021/06/09 05:26:34;;;;;;;;;;;;;;;14.91;85.97;102219.31;5014927;28;20004;-79
2021/06/09 05:29:06;;;;;;;;;;;;;;;15.00;85.31;102210.53;5034370;28;20009;-81
2021/06/09 05:31:31;;;;;;;;;;;;;;;15.10;83.66;102211.34;5023713;28;19924;-79
2021/06/09 05:33:58;;;;;;;;;;;;;;;15.24;79.94;102217.19;5052370;28;19917;-80
2021/06/09 05:36:23;;;;;;;;;;;;;;;15.29;78.39;102210.50;5047838;28;19919;-80
2021/06/09 05:38:49;;;;;;;;;;;;;;;15.42;78.08;102210.19;5045327;28;19917;-76
2021/06/09 05:41:16;;;;;;;;;;;;;;;15.50;77.33;102209.47;5040117;28;19990;-80
2021/06/09 05:43:41;;;;;;;;;;;;;;;15.56;77.21;102215.03;5041613;28;19923;-81
2021/06/09 05:46:08;;;;;;;;;;;;;;;15.72;77.30;102216.25;5033956;28;20007;-81
2021/06/09 05:48:37;;;;;;;;;;;;;;;15.80;75.55;102220.84;5046303;28;19974;-81
2021/06/09 05:51:03;;;;;;;;;;;;;;;16.00;75.21;102218.97;5050717;28;19913;-81
2021/06/09 05:53:30;;;;;;;;;;;;;;;16.15;73.96;102215.66;5051843;28;20310;-79
2021/06/09 05:55:56;;;;;;;;;;;;;;;16.21;73.54;102218.72;5033104;28;19963;-82
2021/06/09 05:58:22;;;;;;;;;;;;;;;16.34;69.64;102221.84;5035154;28;19917;-80
2021/06/09 06:00:49;;;;;;;;;;;;;;;16.42;69.86;102206.03;5018452;28;19920;-78
2021/06/09 06:03:15;;;;;;;;;;;;;;;16.59;69.17;102214.97;5033430;28;19944;-79
2021/06/09 06:05:41;;;;;;;;;;;;;;;16.72;67.57;102211.97;5049418;28;19968;-81
2021/06/09 06:08:06;;;;;;;;;;;;;;;16.90;67.01;102212.84;5036898;28;19978;-80
2021/06/09 06:10:32;;;;;;;;;;;;;;;17.06;67.92;102204.16;5048506;28;20382;-79
2021/06/09 06:12:58;;;;;;;;;;;;;;;17.16;66.03;102205.91;5042472;28;20605;-81
2021/06/09 06:15:24;;;;;;;;;;;;;;;17.21;64.59;102204.44;5034082;28;19912;-79
2021/06/09 06:17:50;;;;;;;;;;;;;;;17.30;65.34;102206.19;5049797;28;19916;-79
2021/06/09 06:20:19;;;;;;;;;;;;;;;17.41;65.44;102204.28;5042263;28;19913;-81
2021/06/09 06:22:45;;;;;;;;;;;;;;;17.50;65.24;102200.69;5051668;28;19912;-80
2021/06/09 06:25:16;;;;;;;;;;;;;;;17.64;65.80;102202.72;5049599;28;20391;-80
2021/06/09 06:27:42;;;;;;;;;;;;;;;17.81;63.51;102201.00;5028813;28;19919;-82
2021/06/09 06:30:08;;;;;;;;;;;;;;;17.93;63.78;102200.75;5037482;28;19916;-81
2021/06/09 06:32:34;;;;;;;;;;;;;;;18.02;64.17;102207.75;5041089;28;20020;-79
2021/06/09 06:35:01;;;;;;;;;;;;;;;18.22;64.44;102211.00;5045530;28;20410;-79
2021/06/09 06:37:29;;;;;;;;;;;;;;;18.43;63.81;102213.19;5042877;28;20013;-80
2021/06/09 06:39:54;;;;;;;;;;;;;;;18.47;62.55;102210.03;5039427;28;20343;-80
2021/06/09 06:42:20;;;;;;;;;;;;;;;18.39;62.87;102211.88;5051555;28;19944;-79
2021/06/09 06:44:45;;;;;;;;;;;;;;;18.57;63.76;102204.59;5034500;28;19917;-79
2021/06/09 06:47:12;;;;;;;;;;;;;;;18.82;63.03;102212.63;5047365;28;19952;-80
2021/06/09 06:49:38;;;;;;;;;;;;;;;19.06;59.76;102212.63;5030117;28;19917;-79
2021/06/09 06:52:03;;;;;;;;;;;;;;;19.12;59.53;102216.44;5030472;28;19967;-81
2021/06/09 06:54:29;;;;;;;;;;;;;;;19.21;60.02;102214.59;5041892;28;19916;-79
2021/06/09 06:56:56;;;;;;;;;;;;;;;19.42;60.34;102214.91;5033243;28;20464;-82
2021/06/09 06:59:22;;;;;;;;;;;;;;;19.51;56.71;102217.53;5035335;28;19912;-82
2021/06/09 07:01:48;;;;;;;;;;;;;;;19.64;57.65;102217.84;5052031;28;20409;-79
2021/06/09 07:04:15;;;;;;;;;;;;;;;19.71;56.68;102215.34;5053413;28;19955;-79
2021/06/09 07:06:42;;;;;;;;;;;;;;;19.62;58.17;102212.69;5041573;28;19916;-80
2021/06/09 07:09:07;;;;;;;;;;;;;;;19.80;57.60;102212.50;5036020;28;20322;-81
2021/06/09 07:11:33;;;;;;;;;;;;;;;20.02;55.58;102218.06;5043953;28;19913;-78
2021/06/09 07:13:59;;;;;;;;;;;;;;;20.23;53.63;102213.00;5035563;28;19917;-81
2021/06/09 07:16:28;;;;;;;;;;;;;;;20.35;55.19;102212.59;5041031;28;19912;-80
2021/06/09 07:18:55;;;;;;;;;;;;;;;20.48;54.36;102212.03;5055578;28;19989;-80
2021/06/09 07:21:22;;;;;;;;;;;;;;;20.56;56.17;102207.44;5048740;28;19947;-80
2021/06/09 07:23:48;;;;;;;;;;;;;;;20.52;52.93;102208.81;5023782;28;19913;-81
2021/06/09 07:26:14;;;;;;;;;;;;;;;20.61;52.12;102204.28;5036045;28;19913;-80
2021/06/09 07:28:41;;;;;;;;;;;;;;;20.74;50.95;102204.53;5036678;28;20398;-80
2021/06/09 07:31:08;;;;;;;;;;;;;;;20.82;51.79;102208.97;5045075;28;19928;-79
2021/06/09 07:33:33;;;;;;;;;;;;;;;20.72;51.15;102205.69;5036473;28;20016;-80
2021/06/09 07:36:03;;;;;;;;;;;;;;;20.89;51.10;102209.91;5044088;28;20438;-81
2021/06/09 07:38:31;;;;;;;;;;;;;;;21.17;53.03;102204.84;5004542;28;19920;-83
2021/06/09 07:40:59;;;;;;;;;;;;;;;21.35;50.90;102198.31;5003473;28;19999;-83
2021/06/09 07:43:27;;;;;;;;;;;;;;;21.46;49.20;102205.09;5004636;28;20547;-80
2021/06/09 07:45:53;;;;;;;;;;;;;;;21.49;49.70;102208.22;5015587;28;19913;-80
2021/06/09 07:48:20;;;;;;;;;;;;;;;21.58;50.52;102204.41;5022758;28;20271;-83
2021/06/09 07:50:50;;;;;;;;;;;;;;;21.74;50.89;102207.94;5023134;28;19923;-81
2021/06/09 07:53:16;;;;;;;;;;;;;;;21.80;48.52;102201.03;5023930;28;19923;-82
2021/06/09 07:55:43;;;;;;;;;;;;;;;21.77;49.61;102197.72;5057115;28;19909;-82
2021/06/09 07:58:08;;;;;;;;;;;;;;;21.89;48.91;102200.72;5039670;28;20286;-83
2021/06/09 08:00:34;;;;;;;;;;;;;;;21.97;49.03;102200.63;5039592;28;19912;-83
2021/06/09 08:03:00;;;;;;;;;;;;;;;22.05;49.03;102197.00;5037824;28;19913;-83
2021/06/09 08:05:26;;;;;;;;;;;;;;;22.06;49.83;102201.34;5056390;28;19917;-82
2021/06/09 08:07:52;;;;;;;;;;;;;;;22.00;48.22;102202.09;5016788;28;19913;-81
2021/06/09 08:10:18;;;;;;;;;;;;;;;22.03;48.47;102195.53;5035233;28;19912;-82
2021/06/09 08:12:44;;;;;;;;;;;;;;;22.12;48.08;102191.75;5035978;28;19955;-82
2021/06/09 08:15:11;;;;;;;;;;;;;;;22.26;48.41;102193.56;5019066;28;20648;-83
2021/06/09 08:17:39;;;;;;;;;;;;;;;22.44;45.64;102195.81;5017127;28;19913;-81
2021/06/09 08:20:07;;;;;;;;;;;;;;;22.41;48.03;102196.19;5019206;28;19952;-83
2021/06/09 08:22:33;;;;;;;;;;;;;;;22.47;46.60;102191.94;5020821;28;19966;-82
2021/06/09 08:24:58;;;;;;;;;;;;;;;22.71;47.04;102196.91;5020250;28;19913;-81
2021/06/09 08:27:24;;;;;;;;;;;;;;;22.92;45.59;102196.06;5041255;28;19913;-83
2021/06/09 08:29:49;;;;;;;;;;;;;;;23.05;45.75;102195.34;5007259;28;19953;-82
2021/06/09 08:32:15;;;;;;;;;;;;;;;23.06;45.64;102193.53;5016440;28;19921;-81
2021/06/09 08:34:40;;;;;;;;;;;;;;;23.11;46.38;102193.75;5004844;28;19959;-82
2021/06/09 08:37:06;;;;;;;;;;;;;;;23.27;45.50;102201.50;5014158;28;19913;-81
2021/06/09 08:39:31;;;;;;;;;;;;;;;23.26;44.26;102201.69;4999595;28;19970;-81
2021/06/09 08:42:01;;;;;;;;;;;;;;;23.46;44.27;102205.31;5024384;28;20466;-82
2021/06/09 08:44:26;;;;;;;;;;;;;;;23.50;43.19;102192.38;5010774;28;19916;-82
2021/06/09 08:46:57;;;;;;;;;;;;;;;23.67;44.05;102195.53;5012675;28;19913;-83
2021/06/09 08:49:22;;;;;;;;;;;;;;;23.87;43.86;102191.13;5019523;28;19919;-82
2021/06/09 08:51:48;;;;;;;;;;;;;;;24.08;42.91;102198.22;5016156;28;19913;-84
2021/06/09 08:54:14;;;;;;;;;;;;;;;24.18;44.37;102197.81;5042915;28;19917;-81
2021/06/09 08:56:39;;;;;;;;;;;;;;;24.28;44.22;102200.16;5014131;28;19912;-84
2021/06/09 08:59:06;;;;;;;;;;;;;;;24.25;44.40;102196.00;5027161;28;20583;-82
2021/06/09 09:01:33;;;;;;;;;;;;;;;24.49;43.25;102202.66;5016103;28;19916;-85
2021/06/09 09:03:59;;;;;;;;;;;;;;;24.89;41.69;102201.88;5002078;28;20795;-83
2021/06/09 09:06:25;;;;;;;;;;;;;;;25.12;41.29;102208.69;5016306;28;20541;-84
2021/06/09 09:08:53;;;;;;;;;;;;;;;25.30;42.99;102208.06;5005995;28;19921;-81
2021/06/09 09:11:18;;;;;;;;;;;;;;;25.42;43.74;102204.53;5032277;28;20012;-83
2021/06/09 09:13:44;;;;;;;;;;;;;;;25.05;44.67;102208.69;5002972;28;20011;-83
2021/06/09 09:16:09;;;;;;;;;;;;;;;24.53;43.99;102210.31;5000834;28;20539;-83
2021/06/09 09:18:46;;;;;;;;;;;;;;;24.22;43.19;102206.28;5013299;28;19913;-83
2021/06/09 09:21:13;;;;;;;;;;;;;;;24.02;43.91;102207.06;5010500;28;19921;-85
2021/06/09 09:23:47;;;;;;;;;;;;;;;23.85;47.81;102197.72;5016436;28;19963;-82
2021/06/09 09:26:23;;;;;;;;;;;;;;;24.04;49.42;102206.88;5017216;28;19967;-82
2021/06/09 09:28:48;;;;;;;;;;;;;;;24.21;47.20;102205.47;5032183;28;19999;-84
2021/06/09 09:31:16;;;;;;;;;;;;;;;24.51;45.17;102204.31;5008096;28;20015;-84
2021/06/09 09:33:42;;;;;;;;;;;;;;;24.35;53.70;102206.31;5032489;28;19979;-84
2021/06/09 09:36:42;;;;;;;;;;;;;;;24.37;44.31;102201.56;5041615;28;19923;-84
2021/06/09 09:39:19;;;;;;;;;;;;;;;24.16;41.45;102210.59;5034825;28;19924;-81
2021/06/09 09:41:44;;;;;;;;;;;;;;;24.22;42.06;102204.47;5043598;28;19916;-82
2021/06/09 09:44:10;;;;;;;;;;;;;;;24.17;45.26;102206.09;5035393;28;20536;-84
2021/06/09 09:46:39;;;;;;;;;;;;;;;24.42;43.24;102204.47;5041242;28;20352;-82
2021/06/09 09:49:05;;;;;;;;;;;;;;;24.42;39.67;102199.13;5024291;28;19916;-84
2021/06/09 09:51:31;;;;;;;;;;;;;;;24.34;42.81;102218.09;4999146;28;19921;-83
2021/06/09 09:53:57;;;;;;;;;;;;;;;24.29;45.34;102213.31;5023313;28;19916;-82
2021/06/09 09:56:26;;;;;;;;;;;;;;;24.30;42.10;102208.81;5018833;28;20294;-82
2021/06/09 09:59:04;;;;;;;;;;;;;;;24.35;42.02;102211.69;5015226;28;19963;-85
2021/06/09 10:01:37;;;;;;;;;;;;;;;24.31;40.88;102205.09;5045230;28;19962;-84
2021/06/09 10:04:04;;;;;;;;;;;;;;;24.65;39.05;102206.81;5017976;28;19947;-84
2021/06/09 10:06:43;;;;;;;;;;;;;;;24.92;39.02;102206.00;5010326;28;20359;-82
2021/06/09 10:09:12;;;;;;;;;;;;;;;25.33;38.08;102196.91;5034494;28;20326;-81
2021/06/09 10:11:45;;;;;;;;;;;;;;;25.39;36.69;102196.06;5035185;28;19919;-84
2021/06/09 10:14:14;;;;;;;;;;;;;;;25.55;37.62;102194.78;5032732;28;19928;-83
2021/06/09 10:16:41;;;;;;;;;;;;;;;25.95;39.66;102197.34;5032771;28;19912;-85
2021/06/09 10:19:08;;;;;;;;;;;;;;;26.20;37.70;102194.72;5012154;28;19920;-84
2021/06/09 10:21:41;;;;;;;;;;;;;;;26.01;37.68;102183.03;5005464;28;19913;-83
2021/06/09 10:24:08;;;;;;;;;;;;;;;25.71;39.16;102185.41;5015248;28;19917;-84
2021/06/09 10:26:34;;;;;;;;;;;;;;;25.52;38.44;102182.59;4998784;28;19913;-84
2021/06/09 10:29:04;;;;;;;;;;;;;;;25.93;38.62;102180.59;5018308;28;20260;-84
2021/06/09 10:31:31;;;;;;;;;;;;;;;26.26;37.68;102175.06;5014703;28;19948;-80
2021/06/09 10:33:56;;;;;;;;;;;;;;;26.57;37.70;102179.56;5020998;28;19924;-83
2021/06/09 10:36:22;;;;;;;;;;;;;;;26.76;36.45;102177.78;5050416;28;19913;-85
2021/06/09 10:38:49;;;;;;;;;;;;;;;27.10;38.33;102164.03;5027324;28;20016;-84
2021/06/09 10:41:15;;;;;;;;;;;;;;;27.23;34.90;102174.66;5032311;28;19913;-81
2021/06/09 10:43:45;;;;;;;;;;;;;;;27.28;35.62;102174.84;5014742;28;19917;-86
2021/06/09 10:46:11;;;;;;;;;;;;;;;27.45;36.90;102171.56;5047883;28;20347;-84
2021/06/09 10:48:38;;;;;;;;;;;;;;;27.31;36.08;102171.72;5007572;28;19948;-84
2021/06/09 10:51:04;;;;;;;;;;;;;;;26.67;36.34;102160.28;5005635;28;20290;-84
2021/06/09 10:53:30;;;;;;;;;;;;;;;26.44;38.73;102170.78;5013500;28;19917;-83
2021/06/09 10:56:10;;;;;;;;;;;;;;;26.73;38.14;102164.78;5021587;28;19920;-82
2021/06/09 10:58:35;;;;;;;;;;;;;;;26.73;40.26;102159.41;5018404;28;20011;-82
2021/06/09 11:01:01;;;;;;;;;;;;;;;26.90;38.20;102156.13;5033802;28;19917;-83
2021/06/09 11:03:26;;;;;;;;;;;;;;;26.84;37.83;102157.03;5017907;28;19920;-83
2021/06/09 11:05:52;;;;;;;;;;;;;;;26.94;39.07;102151.97;5017661;28;19923;-86
2021/06/09 11:08:17;;;;;;;;;;;;;;;26.76;36.63;102153.56;5016936;28;19913;-84
2021/06/09 11:10:48;;;;;;;;;;;;;;;26.70;37.32;102149.06;5013219;28;19967;-84
2021/06/09 11:13:30;;;;;;;;;;;;;;;26.79;40.84;102147.75;5030958;28;19967;-84
2021/06/09 11:16:03;;;;;;;;;;;;;;;26.92;38.42;102152.19;5014686;28;19920;-85
2021/06/09 11:18:33;;;;;;;;;;;;;;;27.13;37.09;102148.25;5018212;28;19982;-84
2021/06/09 11:21:02;;;;;;;;;;;;;;;26.69;36.58;102151.97;5013510;28;20291;-84
2021/06/09 11:23:29;;;;;;;;;;;;;;;27.03;36.76;102142.56;5006512;28;20287;-84
2021/06/09 11:25:55;;;;;;;;;;;;;;;27.07;35.59;102140.22;5033989;28;19913;-84
2021/06/09 11:28:32;;;;;;;;;;;;;;;27.09;35.54;102141.69;5017880;28;19924;-84
2021/06/09 11:31:00;;;;;;;;;;;;;;;26.90;38.15;102138.13;5026453;28;19913;-85
2021/06/09 11:33:29;;;;;;;;;;;;;;;26.70;37.39;102137.50;5030378;28;19990;-84
2021/06/09 11:35:58;;;;;;;;;;;;;;;26.41;37.44;102140.59;4999579;28;19996;-83
2021/06/09 11:38:24;;;;;;;;;;;;;;;26.27;37.47;102140.91;5026019;28;19966;-84
2021/06/09 11:40:57;;;;;;;;;;;;;;;26.34;37.93;102131.75;5017809;28;19917;-84
2021/06/09 11:43:22;;;;;;;;;;;;;;;26.71;37.37;102128.38;5038401;28;19912;-85
2021/06/09 11:45:50;;;;;;;;;;;;;;;27.40;38.32;102125.63;5021754;28;20385;-83
2021/06/09 11:48:17;;;;;;;;;;;;;;;27.68;37.20;102125.88;5020695;28;20394;-82
2021/06/09 11:50:43;;;;;;;;;;;;;;;27.88;35.38;102120.22;5019060;28;19947;-82
2021/06/09 11:53:20;;;;;;;;;;;;;;;28.28;35.69;102127.72;5051440;28;20271;-83
2021/06/09 11:56:05;;;;;;;;;;;;;;;28.60;37.81;102132.84;5043917;28;19960;-84
2021/06/09 11:58:36;;;;;;;;;;;;;;;28.68;33.95;102124.38;5037332;28;19920;-81
2021/06/09 12:01:01;;;;;;;;;;;;;;;28.24;36.49;102126.56;5033029;28;19920;-84
2021/06/09 12:03:27;;;;;;;;;;;;;;;27.42;36.54;102124.34;5000869;28;20376;-85
2021/06/09 12:05:52;;;;;;;;;;;;;;;27.71;34.77;102120.03;5020948;28;19913;-84
2021/06/09 12:08:19;;;;;;;;;;;;;;;27.62;35.52;102121.41;5017028;28;19960;-82
2021/06/09 12:10:52;;;;;;;;;;;;;;;27.39;41.35;102105.94;5004060;28;19971;-85
2021/06/09 12:13:25;;;;;;;;;;;;;;;27.98;37.86;102114.28;5035873;28;20024;-85
2021/06/09 12:16:00;;;;;;;;;;;;;;;27.89;37.62;102107.56;5017230;28;19960;-84
2021/06/09 12:18:29;;;;;;;;;;;;;;;27.87;37.41;102106.97;5017660;28;19920;-82
2021/06/09 12:21:04;;;;;;;;;;;;;;;28.10;35.24;102109.72;5016351;28;20303;-79
2021/06/09 12:23:30;;;;;;;;;;;;;;;28.53;38.58;102105.97;5033912;28;19920;-81
2021/06/09 12:25:55;;;;;;;;;;;;;;;28.26;33.99;102104.75;5010600;28;19917;-82
2021/06/09 12:28:21;;;;;;;;;;;;;;;27.86;38.81;102100.75;5055240;28;20252;-84
2021/06/09 12:30:55;;;;;;;;;;;;;;;28.23;40.58;102097.09;5035241;28;19913;-84
2021/06/09 12:33:32;;;;;;;;;;;;;;;28.58;35.03;102102.56;5010124;28;20015;-84
2021/06/09 12:35:57;;;;;;;;;;;;;;;28.63;38.97;102096.44;5017334;28;19920;-80
2021/06/09 12:38:27;;;;;;;;;;;;;;;28.55;37.85;102097.63;5060524;28;19916;-85